Latest Weather Observations for Learmonth

IDW60801

Issued at 12:02 pm WST Wednesday 28 January 2015 (issued every 30 minutes, with the page automatically refreshed every 10 minutes)

About weather observations | Map of weather stations | Latest weather observations for WA | Other Formats
Station Details ID: 005007 Name: LEARMONTH AIRPORT Lat: -22.24 Lon: 114.10 Height: 5.0 m
Data from the previous 72 hours. | See also: Recent months at Learmonth
Date/Time
WST
Temp
°C
App
Temp
°C
Dew
Point
Rel
Hum
%
Delta-T
°C
Wind Press
QNH
hPa
Press
MSL
hPa
Rain
since 9 am
mm
Dir
 
Spd
km/h
Gust
km/h
Spd
kts
Gust
kts
28/12:00pm 32.0 31.1 17.7 42 9.2 W 19 26 10 14 1006.6 - 0.0
28/11:30am 31.2 31.2 18.0 45 8.5 WSW 15 22 8 12 1007.0 - 0.0
28/11:00am 30.9 30.1 18.0 46 8.3 WSW 19 28 10 15 1007.2 - 0.0
28/10:30am 29.9 29.9 18.0 48 7.6 SW 15 26 8 14 1007.6 - 0.0
28/10:00am 28.0 27.5 17.9 54 6.4 SW 17 26 9 14 1007.7 - 0.0
28/09:30am 28.2 27.6 18.4 55 6.3 SSW 19 28 10 15 1007.7 - 0.0
28/09:00am 27.6 28.2 18.7 58 5.7 SSW 13 24 7 13 1007.7 1007.6 0.0
28/08:30am 26.1 25.4 18.6 63 4.8 S 20 26 11 14 1007.6 - 0.0
28/08:00am 25.1 23.9 18.5 67 4.2 SSW 22 28 12 15 1007.4 - 0.0
28/07:30am 25.0 23.8 18.5 67 4.1 SSW 22 28 12 15 1007.2 - 0.0
28/07:00am 24.6 24.0 18.8 70 3.7 SSW 20 28 11 15 1007.1 - 0.0
28/06:30am 24.5 24.1 18.9 71 3.6 SSW 19 28 10 15 1006.7 - 0.0
28/06:00am 24.3 23.1 18.5 70 3.7 SSW 22 32 12 17 1006.6 1006.5 0.0
28/05:30am 24.4 23.8 18.9 71 3.5 SSW 20 28 11 15 1006.3 - 0.0
28/05:00am 24.5 23.4 18.7 70 3.7 SW 22 28 12 15 1006.0 - 0.0
28/04:30am 24.3 23.8 19.0 72 3.4 SSW 20 26 11 14 1005.8 - 0.0
28/04:00am 24.3 23.3 18.8 71 3.5 SSW 22 30 12 16 1005.9 - 0.0
28/03:30am 24.3 23.8 19.0 72 3.4 SSW 20 26 11 14 1005.7 - 0.0
28/03:00am 24.5 24.5 19.0 71 3.5 SW 17 24 9 13 1005.8 1005.7 0.0
28/02:30am 24.5 23.6 19.0 71 3.5 SW 22 30 12 16 1005.5 - 0.0
28/02:00am 24.2 23.2 18.9 72 3.4 SW 22 33 12 18 1005.7 - 0.0
28/01:30am 24.1 23.7 18.9 72 3.3 SW 19 24 10 13 1005.6 - 0.0
28/01:00am 24.2 23.3 19.0 72 3.3 SW 22 30 12 16 1005.8 - 0.0
28/12:30am 24.4 23.2 19.3 73 3.3 SW 24 33 13 18 1005.9 - 0.0
28/12:00am 24.3 23.1 19.3 73 3.2 SW 24 33 13 18 1006.2 1006.1 0.0
 
Date/Time
WST
Temp
°C
App
Temp
°C
Dew
Point
Rel
Hum
%
Delta-T
°C
Wind Press
QNH
hPa
Press
MSL
hPa
Rain
since 9 am
mm
Dir
 
Spd
km/h
Gust
km/h
Spd
kts
Gust
kts
27/11:30pm 24.4 23.2 19.3 73 3.3 SW 24 32 13 17 1006.4 - 0.0
27/11:00pm 24.5 23.8 19.4 73 3.3 SW 22 32 12 17 1006.6 - 0.0
27/10:30pm 24.7 23.7 19.6 73 3.3 SW 24 33 13 18 1006.7 - 0.0
27/10:00pm 24.9 24.2 19.5 72 3.5 SW 22 30 12 16 1006.8 - 0.0
27/09:30pm 25.1 25.0 19.9 73 3.4 WSW 20 26 11 14 1006.8 - 0.0
27/09:00pm 25.3 25.1 19.7 71 3.6 WSW 20 28 11 15 1006.5 1006.4 0.0
27/08:30pm 25.5 24.6 19.8 70 3.7 WSW 24 30 13 16 1006.3 - 0.0
27/08:00pm 25.8 24.0 19.5 68 4.1 WSW 28 35 15 19 1006.3 - 0.0
27/07:30pm 26.1 24.2 19.4 66 4.3 WSW 28 35 15 19 1005.9 - 0.0
27/07:00pm 26.8 25.2 19.2 63 4.9 WSW 26 35 14 19 1005.6 - 0.0
27/06:30pm 27.7 25.3 19.0 59 5.6 WSW 30 39 16 21 1005.4 - 0.0
27/06:00pm 28.7 26.3 19.0 55 6.3 WSW 30 43 16 23 1005.2 1005.1 0.0
27/05:30pm 29.6 27.4 18.6 51 7.1 W 28 39 15 21 1005.2 - 0.0
27/05:00pm 30.0 27.4 18.7 50 7.3 WSW 30 41 16 22 1005.2 - 0.0
27/04:30pm 30.5 27.7 18.2 47 7.9 W 30 41 16 22 1005.2 - 0.0
27/04:00pm 31.2 28.8 18.2 46 8.4 W 28 37 15 20 1005.1 - 0.0
27/03:30pm 31.9 29.3 17.9 43 9.0 W 28 37 15 20 1005.3 - 0.0
27/03:00pm 31.7 30.0 18.2 44 8.7 WSW 24 35 13 19 1005.4 1005.3 0.0
27/02:30pm 33.5 32.0 17.7 39 10.2 W 22 35 12 19 1005.4 - 0.0
27/02:00pm 32.4 30.7 18.0 42 9.3 WSW 24 39 13 21 1005.5 - 0.0
27/01:30pm 32.6 31.7 18.1 42 9.4 SW 20 26 11 14 1005.6 - 0.0
27/01:00pm 31.7 30.9 18.0 44 8.8 WSW 19 28 10 15 1006.0 - 0.0
27/12:30pm 31.4 29.9 17.7 44 8.8 SW 22 33 12 18 1006.3 - 0.0
27/12:00pm 31.1 30.9 18.4 46 8.2 WSW 17 24 9 13 1006.8 1006.7 0.0
27/11:30am 30.9 30.0 18.2 46 8.2 SW 20 30 11 16 1007.2 - 0.0
27/11:00am 29.7 28.8 18.2 50 7.4 WSW 20 28 11 15 1007.5 - 0.0
27/10:30am 29.6 28.8 18.4 51 7.2 WSW 20 28 11 15 1007.6 - 0.0
27/10:00am 28.7 28.7 18.2 53 6.7 WSW 15 24 8 13 1007.7 - 0.0
27/09:30am 28.0 28.1 18.3 55 6.2 WSW 15 24 8 13 1007.8 - 0.0
27/09:00am 27.4 28.0 18.7 59 5.6 WSW 13 20 7 11 1007.6 1007.5 0.0
27/08:30am 26.7 26.5 18.4 60 5.3 WSW 17 24 9 13 1007.7 - 0.0
27/08:00am 25.9 26.0 18.3 63 4.8 WSW 15 20 8 11 1007.4 - 0.0
27/07:30am 25.3 25.1 18.5 66 4.3 W 17 20 9 11 1007.3 - 0.0
27/07:00am 24.8 25.8 18.7 69 3.9 SW 11 15 6 8 1007.2 - 0.0
27/06:30am 24.3 23.7 18.5 70 3.7 SW 19 24 10 13 1006.9 - 0.0
27/06:00am 24.4 24.7 18.7 70 3.6 WSW 15 20 8 11 1006.6 1006.5 0.0
27/05:30am 24.4 24.4 18.9 71 3.5 SW 17 22 9 12 1006.4 - 0.0
27/05:00am 23.9 23.3 18.5 72 3.4 SW 19 26 10 14 1006.4 - 0.0
27/04:30am 23.9 24.7 19.0 74 3.1 WSW 13 19 7 10 1006.1 - 0.0
27/04:00am 23.4 23.0 18.8 75 2.9 WSW 19 28 10 15 1006.0 - 0.0
27/03:30am 23.2 23.5 18.8 76 2.8 WSW 15 19 8 10 1005.8 - 0.0
27/03:00am 23.1 23.8 18.8 77 2.7 SW 13 17 7 9 1005.7 1005.6 0.0
27/02:30am 23.5 23.1 18.8 75 3.0 WSW 19 24 10 13 1005.8 - 0.0
27/02:00am 23.8 22.4 18.8 73 3.2 WSW 24 33 13 18 1005.8 - 0.0
27/01:30am 23.9 21.3 18.7 72 3.3 SW 30 37 16 20 1005.8 - 0.0
27/01:00am 24.1 21.6 18.8 72 3.4 SW 30 37 16 20 1005.8 - 0.0
27/12:30am 24.2 22.1 18.9 72 3.4 SW 28 41 15 22 1006.2 - 0.0
27/12:00am 24.3 21.4 18.8 71 3.5 WSW 32 41 17 22 1006.4 1006.3 0.0
 
Date/Time
WST
Temp
°C
App
Temp
°C
Dew
Point
Rel
Hum
%
Delta-T
°C
Wind Press
QNH
hPa
Press
MSL
hPa
Rain
since 9 am
mm
Dir
 
Spd
km/h
Gust
km/h
Spd
kts
Gust
kts
26/11:30pm 24.4 22.4 19.1 72 3.4 SW 28 33 15 18 1006.7 - 0.0
26/11:00pm 24.4 22.4 19.1 72 3.4 SW 28 33 15 18 1006.7 - 0.0
26/10:30pm 24.6 21.8 19.1 71 3.5 SW 32 41 17 22 1006.7 - 0.0
26/10:00pm 24.7 22.7 19.2 71 3.5 SW 28 41 15 22 1006.7 - 0.0
26/09:30pm 24.7 23.7 19.6 73 3.3 WSW 24 35 13 19 1006.7 - 0.0
26/09:00pm 24.8 23.0 19.5 72 3.4 SW 28 35 15 19 1006.5 1006.4 0.0
26/08:30pm 24.9 22.3 19.6 72 3.4 WSW 32 43 17 23 1006.3 - 0.0
26/08:00pm 25.2 23.8 19.6 71 3.6 WSW 26 33 14 18 1006.2 - 0.0
26/07:30pm 25.6 24.2 19.7 70 3.8 WSW 26 33 14 18 1006.1 - 0.0
26/07:00pm 26.3 24.6 19.7 67 4.3 WSW 28 37 15 20 1005.7 - 0.0
26/06:30pm 28.0 26.1 19.4 59 5.6 WSW 28 39 15 21 1005.5 - 0.0
26/06:00pm 28.9 25.8 18.3 52 6.8 WSW 32 39 17 21 1005.2 1005.1 0.0
26/05:30pm 29.9 27.5 18.2 49 7.5 WSW 28 37 15 20 1005.0 - 0.0
26/05:00pm 31.3 28.3 16.9 42 9.1 WSW 28 39 15 21 1004.8 - 0.0
26/04:30pm 32.7 29.9 17.2 39 9.9 WSW 28 37 15 20 1004.6 - 0.0
26/04:00pm 32.9 30.2 17.5 39 9.9 W 28 39 15 21 1004.6 - 0.0
26/03:30pm 33.5 31.2 17.7 39 10.2 W 26 35 14 19 1004.9 - 0.0
26/03:00pm 34.2 31.9 17.6 37 10.7 W 26 32 14 17 1004.8 1004.7 0.0
26/02:30pm 34.8 33.6 18.5 38 10.6 W 22 32 12 17 1004.7 - 0.0
26/02:00pm 32.9 32.9 20.1 47 8.5 N 20 26 11 14 1004.8 - 0.0
26/01:30pm 32.6 31.7 20.7 49 8.0 NNE 26 33 14 18 1005.3 - 0.0
26/01:00pm 32.5 32.6 20.0 47 8.3 ENE 19 26 10 14 1005.5 - 0.0
26/12:30pm 31.7 31.3 19.4 48 8.1 ENE 20 28 11 15 1005.7 - 0.0
26/12:00pm 31.7 31.4 20.4 51 7.5 E 22 30 12 16 1005.9 1005.8 0.0
26/11:30am 33.7 34.5 17.4 37 10.5 W 9 17 5 9 1006.0 - 0.0
26/11:00am 33.1 32.9 17.5 39 10.0 SW 15 24 8 13 1006.3 - 0.0
26/10:30am 32.2 31.0 18.5 44 8.9 SW 22 32 12 17 1006.2 - 0.0
26/10:00am 31.6 30.4 18.5 45 8.5 SW 22 32 12 17 1006.4 - 0.0
26/09:30am 30.0 28.6 18.9 51 7.2 SW 24 35 13 19 1006.5 - 0.0
26/09:00am 28.7 27.4 19.1 56 6.2 SW 24 33 13 18 1006.8 1006.7 0.0
26/08:30am 27.6 25.7 19.3 60 5.4 SW 28 35 15 19 1006.4 - 0.0
26/08:00am 26.2 23.9 20.1 69 4.0 SW 32 39 17 21 1006.5 - 0.0
26/07:30am 25.2 23.4 20.3 74 3.2 SW 30 43 16 23 1006.5 - 0.0
26/07:00am 24.2 24.2 20.2 78 2.6 WSW 20 28 11 15 1006.7 - 0.0
26/06:30am 22.9 23.4 20.0 84 1.9 WSW 17 20 9 11 1006.5 - 0.0
26/06:00am 22.5 23.4 20.0 86 1.6 WSW 15 20 8 11 1006.3 1006.2 0.0
26/05:30am 22.3 23.7 19.6 85 1.7 SW 11 15 6 8 1006.1 - 0.0
26/05:00am 22.5 23.7 19.9 85 1.7 SW 13 17 7 9 1005.9 - 0.0
26/04:30am 22.7 24.2 19.7 83 1.9 SSW 11 15 6 8 1005.8 - 0.0
26/04:00am 23.3 23.7 19.9 81 2.2 SW 17 20 9 11 1005.7 - 0.0
26/03:30am 23.6 23.7 20.0 80 2.3 SSW 19 24 10 13 1005.6 - 0.0
26/03:00am 23.7 23.0 20.2 81 2.3 SSW 24 32 13 17 1005.5 1005.4 0.0
26/02:30am 23.9 23.8 19.9 78 2.6 SSW 20 26 11 14 1005.8 - 0.0
26/02:00am 24.0 23.9 19.5 76 2.9 SW 19 22 10 12 1005.8 - 0.0
26/01:30am 24.4 24.8 19.1 72 3.4 SW 15 20 8 11 1005.8 - 0.0
26/01:00am 24.9 23.9 18.8 69 3.9 SW 22 32 12 17 1005.5 - 0.0
26/12:30am 25.4 23.4 18.3 65 4.5 SW 26 33 14 18 1005.4 - 0.0
26/12:00am 25.6 23.5 18.0 63 4.8 SW 26 33 14 18 1005.4 1005.3 0.0
 
Date/Time
WST
Temp
°C
App
Temp
°C
Dew
Point
Rel
Hum
%
Delta-T
°C
Wind Press
QNH
hPa
Press
MSL
hPa
Rain
since 9 am
mm
Dir
 
Spd
km/h
Gust
km/h
Spd
kts
Gust
kts
25/11:30pm 26.2 23.9 17.6 59 5.4 SW 26 35 14 19 1005.5 - 0.0
25/11:00pm 25.9 23.9 19.2 66 4.3 SW 28 35 15 19 1005.7 - 0.0
25/10:30pm 26.1 24.5 19.3 66 4.4 SW 26 35 14 19 1006.0 - 0.0
25/10:00pm 26.1 24.2 20.1 69 3.9 SW 30 39 16 21 1006.1 - 0.0
25/09:30pm 26.4 25.0 20.5 70 3.9 SW 28 39 15 21 1006.1 - 0.0
25/09:00pm 26.7 24.3 20.3 68 4.2 SW 33 44 18 24 1006.1 1006.0 0.0
25/08:30pm 27.6 24.8 19.1 59 5.5 WSW 32 41 17 22 1005.9 - 0.0
25/08:00pm 28.9 25.6 16.0 45 8.0 WSW 28 41 15 22 1005.8 - 0.0
25/07:30pm 29.9 26.5 15.7 42 8.8 SW 28 41 15 22 1005.8 - 0.0
25/07:00pm 31.1 25.9 14.6 36 10.1 SW 35 43 19 23 1005.3 - 0.0
25/06:30pm 32.7 27.8 13.8 31 11.5 WSW 32 43 17 23 1004.9 - 0.0
25/06:00pm 33.8 29.1 14.8 32 11.8 WSW 33 46 18 25 1004.5 1004.4 0.0
25/05:30pm 34.9 29.8 14.8 30 12.5 WSW 35 44 19 24 1004.1 - 0.0
25/05:00pm 36.3 31.3 13.3 25 14.0 WSW 32 41 17 22 1003.7 - 0.0
25/04:30pm 36.7 30.9 12.7 23 14.5 WSW 35 46 19 25 1003.5 - 0.0
25/04:00pm 37.2 32.0 14.5 26 14.1 WSW 35 48 19 26 1003.7 - 0.0
25/03:30pm 37.7 32.5 14.5 25 14.5 W 35 46 19 25 1004.2 - 0.0
25/03:00pm 38.0 33.5 14.8 25 14.6 WSW 32 41 17 22 1004.6 1004.5 0.0
25/02:30pm 38.8 34.0 14.6 24 15.2 W 33 44 18 24 1004.7 - 0.0
25/02:00pm 38.8 34.5 15.3 25 14.9 WSW 32 41 17 22 1004.8 - 0.0
25/01:30pm 39.9 36.4 16.4 25 15.2 WSW 30 39 16 21 1004.7 - 0.0
25/01:00pm 39.1 34.9 13.4 21 15.9 SW 28 32 15 17 1004.8 - 0.0
25/12:30pm 39.6 35.6 13.0 20 16.4 SW 26 37 14 20 1005.1 - 0.0

Other Formats:

Comma delimited format used in spreadsheet applications
http://www.bom.gov.au/fwo/IDW60801/IDW60801.94302.axf

JavaScript Object Notation format (JSON) in row-major order
http://www.bom.gov.au/fwo/IDW60801/IDW60801.94302.json